createdAt,value
2023-01-19T00:02:28.432Z,2.88
2023-01-19T00:07:33.044Z,2.89
2023-01-19T00:12:35.586Z,2.88
2023-01-19T00:17:40.782Z,2.97
2023-01-19T00:22:44.664Z,3.18
2023-01-19T00:27:49.300Z,3.21
2023-01-19T00:32:52.264Z,3.21
2023-01-19T00:37:56.834Z,3.12
2023-01-19T00:43:00.647Z,2.97
2023-01-19T00:48:04.776Z,3.14
2023-01-19T00:53:08.665Z,3.05
2023-01-19T00:58:11.277Z,3.16
2023-01-19T01:03:13.998Z,3.15
2023-01-19T01:08:18.004Z,3.23
2023-01-19T01:13:23.652Z,3.26
2023-01-19T01:18:29.352Z,3.26
2023-01-19T01:23:33.300Z,3.30
2023-01-19T01:28:35.858Z,3.13
2023-01-19T01:33:40.472Z,3.24
2023-01-19T01:38:46.052Z,3.18
2023-01-19T01:43:50.848Z,2.85
2023-01-19T01:49:01.031Z,3.15
2023-01-19T01:54:18.189Z,3.06
2023-01-19T01:59:26.579Z,3.31
2023-01-19T02:04:31.033Z,3.34
2023-01-19T02:09:55.284Z,3.34
2023-01-19T02:14:57.851Z,2.66
2023-01-19T02:20:00.542Z,3.34
2023-01-19T02:25:05.551Z,3.33
2023-01-19T02:30:10.106Z,3.30
2023-01-19T02:35:13.434Z,3.20
2023-01-19T02:40:20.676Z,3.29
2023-01-19T02:45:23.870Z,3.30
2023-01-19T02:50:38.243Z,3.39
2023-01-19T02:55:48.673Z,3.27
2023-01-19T03:01:04.696Z,3.32
2023-01-19T03:06:14.553Z,3.57
2023-01-19T03:11:18.692Z,3.70
2023-01-19T03:16:24.280Z,3.21
2023-01-19T03:21:28.912Z,3.16
2023-01-19T03:26:38.033Z,3.21
2023-01-19T03:31:42.877Z,3.28
2023-01-19T03:36:50.630Z,2.94
2023-01-19T03:41:59.557Z,2.99
2023-01-19T03:47:04.048Z,2.02
2023-01-19T03:52:06.968Z,2.25
2023-01-19T03:57:11.343Z,2.74
2023-01-19T04:02:14.761Z,2.81
2023-01-19T04:07:17.566Z,2.64
2023-01-19T04:12:23.398Z,2.59
2023-01-19T04:17:27.371Z,2.32
2023-01-19T04:22:30.811Z,2.17
2023-01-19T04:27:34.766Z,2.47
2023-01-19T04:32:37.758Z,2.66
2023-01-19T04:37:40.328Z,2.89
2023-01-19T04:42:46.021Z,2.54
2023-01-19T04:47:48.622Z,2.48
2023-01-19T04:52:51.758Z,2.68
2023-01-19T04:57:55.887Z,2.48
2023-01-19T05:02:58.659Z,2.81
2023-01-19T05:08:01.776Z,2.66
2023-01-19T05:13:05.762Z,2.81
2023-01-19T05:18:08.764Z,2.59
2023-01-19T05:23:11.581Z,2.78
2023-01-19T05:28:16.660Z,2.80
2023-01-19T05:33:19.220Z,2.73
2023-01-19T05:38:34.592Z,2.89
2023-01-19T05:43:39.046Z,3.12
2023-01-19T05:48:41.659Z,3.17
2023-01-19T05:53:44.212Z,3.01
2023-01-19T05:58:48.149Z,2.96
2023-01-19T06:03:50.768Z,2.62
2023-01-19T06:08:53.370Z,2.94
2023-01-19T06:13:57.357Z,3.06
2023-01-19T06:19:00.325Z,2.84
2023-01-19T06:24:03.493Z,3.00
2023-01-19T06:29:07.825Z,3.07
2023-01-19T06:34:11.349Z,2.98
2023-01-19T06:39:14.177Z,3.36
2023-01-19T06:44:21.381Z,4.01
2023-01-19T06:49:24.748Z,3.66
2023-01-19T06:54:27.395Z,3.28
2023-01-19T06:59:32.032Z,3.39
2023-01-19T07:04:35.127Z,3.24
2023-01-19T07:09:37.913Z,3.22
2023-01-19T07:14:41.848Z,2.98
2023-01-19T07:19:44.426Z,3.30
2023-01-19T07:24:47.143Z,3.19
2023-01-19T07:29:51.455Z,3.27
2023-01-19T07:34:54.224Z,3.45
2023-01-19T07:39:56.903Z,3.14
2023-01-19T07:45:00.900Z,3.20
2023-01-19T07:50:03.549Z,3.49
2023-01-19T07:55:07.210Z,3.45
2023-01-19T08:00:14.368Z,3.49
2023-01-19T08:05:18.134Z,3.35
2023-01-19T08:10:22.890Z,3.43
2023-01-19T08:15:27.289Z,3.36
2023-01-19T08:20:30.520Z,3.44
2023-01-19T08:25:34.367Z,3.34
2023-01-19T08:30:38.736Z,3.44
2023-01-19T08:35:42.744Z,3.44
2023-01-19T08:40:46.198Z,3.55
2023-01-19T08:45:53.828Z,3.62
2023-01-19T08:50:57.010Z,3.74
2023-01-19T08:56:01.213Z,3.85
2023-01-19T09:01:05.521Z,3.74
2023-01-19T09:06:08.908Z,3.64
2023-01-19T09:11:13.155Z,3.87
2023-01-19T09:16:18.081Z,3.73
2023-01-19T09:21:21.068Z,3.97
2023-01-19T09:26:25.055Z,3.86
2023-01-19T09:31:29.388Z,4.00
2023-01-19T09:36:32.376Z,4.06
2023-01-19T09:41:38.471Z,4.09
2023-01-19T09:46:43.122Z,4.06
2023-01-19T09:51:48.733Z,3.82
2023-01-19T09:56:52.933Z,3.85
2023-01-19T10:02:20.187Z,3.88
2023-01-19T10:07:34.201Z,3.99
2023-01-19T10:12:50.918Z,4.09
2023-01-19T10:18:05.016Z,3.82
2023-01-19T10:23:22.719Z,4.02
2023-01-19T10:28:27.491Z,4.01
2023-01-19T10:33:32.828Z,4.36
2023-01-19T10:38:36.118Z,4.42
2023-01-19T10:43:41.522Z,3.99
2023-01-19T10:48:48.963Z,3.99
2023-01-19T10:53:58.353Z,4.12
2023-01-19T10:59:03.091Z,4.33
2023-01-19T11:04:28.605Z,4.45
2023-01-19T11:09:31.192Z,4.21
2023-01-19T11:14:33.822Z,4.32
2023-01-19T11:19:37.791Z,4.35
2023-01-19T11:24:40.561Z,4.39
2023-01-19T11:29:49.036Z,4.23
2023-01-19T11:34:53.401Z,4.39
2023-01-19T11:39:58.705Z,5.17
2023-01-19T11:45:05.960Z,4.81
2023-01-19T11:50:16.219Z,4.42
2023-01-19T11:55:24.055Z,4.49
2023-01-19T12:00:35.471Z,4.58
2023-01-19T12:05:44.035Z,4.70
2023-01-19T12:10:48.515Z,4.52
2023-01-19T12:15:57.708Z,4.70
2023-01-19T12:21:04.100Z,4.82
2023-01-19T12:26:28.166Z,4.76
2023-01-19T12:31:30.806Z,4.60
2023-01-19T12:36:40.103Z,4.61
2023-01-19T12:41:43.647Z,4.46
2023-01-19T12:46:47.668Z,4.44
2023-01-19T12:51:54.432Z,4.81
2023-01-19T12:57:00.949Z,5.02
2023-01-19T13:02:38.338Z,4.68
2023-01-19T13:08:19.222Z,4.52
2023-01-19T13:13:24.421Z,4.54
2023-01-19T13:18:29.562Z,4.42
2023-01-19T13:23:54.623Z,4.57
2023-01-19T13:29:03.638Z,4.54
2023-01-19T13:34:13.530Z,4.85
2023-01-19T13:39:23.668Z,4.84
2023-01-19T13:44:28.928Z,4.66
2023-01-19T13:49:34.485Z,4.88
2023-01-19T13:54:38.413Z,4.70
2023-01-19T13:59:40.998Z,4.68
2023-01-19T14:04:44.029Z,4.86
2023-01-19T14:09:48.659Z,4.70
2023-01-19T14:14:51.347Z,4.73
2023-01-19T14:19:56.224Z,4.38
2023-01-19T14:25:22.228Z,4.58
2023-01-19T14:30:25.910Z,4.92
2023-01-19T14:35:29.951Z,4.80
2023-01-19T14:40:38.760Z,4.85
2023-01-19T14:45:47.843Z,4.78
2023-01-19T14:51:03.495Z,4.63
2023-01-19T14:56:08.439Z,4.61
2023-01-19T15:01:11.112Z,4.70
2023-01-19T15:06:16.205Z,4.64
2023-01-19T15:11:24.237Z,4.48
2023-01-19T15:16:30.177Z,4.43
2023-01-19T15:21:32.886Z,4.53
2023-01-19T15:26:37.866Z,4.30
2023-01-19T15:31:40.465Z,4.49
2023-01-19T15:36:43.331Z,4.11
2023-01-19T15:41:47.982Z,4.36
2023-01-19T15:46:52.232Z,4.03
2023-01-19T15:51:56.514Z,4.02
2023-01-19T15:57:01.482Z,3.26
2023-01-19T16:02:05.795Z,3.95
2023-01-19T16:07:08.993Z,4.10
2023-01-19T16:12:12.903Z,3.93
2023-01-19T16:17:15.619Z,4.00
2023-01-19T16:22:18.196Z,3.75
2023-01-19T16:27:22.104Z,3.94
2023-01-19T16:32:24.743Z,3.97
2023-01-19T16:37:28.182Z,4.24
2023-01-19T16:42:32.111Z,3.93
2023-01-19T16:47:34.855Z,3.90
2023-01-19T16:52:37.475Z,3.91
2023-01-19T16:57:41.412Z,3.72
2023-01-19T17:02:43.974Z,3.93
2023-01-19T17:07:46.517Z,3.96
2023-01-19T17:12:50.620Z,3.92
2023-01-19T17:17:53.274Z,3.87
2023-01-19T17:22:56.847Z,3.98
2023-01-19T17:28:01.231Z,3.98
2023-01-19T17:33:04.149Z,3.98
2023-01-19T17:38:07.135Z,4.10
2023-01-19T17:43:11.022Z,4.16
2023-01-19T17:48:14.025Z,4.22
2023-01-19T17:53:16.712Z,4.30
2023-01-19T17:58:21.171Z,4.27
2023-01-19T18:03:24.118Z,4.26
2023-01-19T18:08:26.937Z,4.35
2023-01-19T18:13:31.298Z,4.41
2023-01-19T18:18:34.495Z,4.03
2023-01-19T18:23:38.422Z,4.31
2023-01-19T18:28:43.102Z,4.28
2023-01-19T18:33:46.594Z,4.31
2023-01-19T18:38:49.832Z,4.35
2023-01-19T18:43:58.155Z,4.37
2023-01-19T18:49:00.850Z,4.37
2023-01-19T18:54:03.595Z,4.27
2023-01-19T18:59:07.548Z,4.19
2023-01-19T19:04:10.247Z,4.12
2023-01-19T19:09:12.852Z,3.97
2023-01-19T19:14:16.833Z,3.89
2023-01-19T19:19:20.323Z,3.74
2023-01-19T19:24:23.315Z,3.70
2023-01-19T19:29:28.289Z,3.62
2023-01-19T19:34:31.353Z,3.70
2023-01-19T19:39:33.957Z,3.64
2023-01-19T19:44:38.483Z,3.72
2023-01-19T19:49:41.196Z,3.65
2023-01-19T19:54:44.364Z,3.58
2023-01-19T19:59:48.502Z,3.52
2023-01-19T20:04:51.493Z,3.43
2023-01-19T20:09:55.247Z,3.58
2023-01-19T20:14:59.526Z,3.25
2023-01-19T20:20:04.304Z,3.41
2023-01-19T20:25:08.023Z,3.00
2023-01-19T20:30:13.444Z,3.20
2023-01-19T20:35:16.360Z,3.32
2023-01-19T20:40:20.120Z,3.40
2023-01-19T20:45:25.906Z,3.25
2023-01-19T20:50:28.591Z,3.43
2023-01-19T20:55:32.008Z,3.36
2023-01-19T21:00:41.530Z,3.33
2023-01-19T21:05:47.684Z,3.36
2023-01-19T21:10:50.380Z,3.24
2023-01-19T21:15:54.387Z,3.17
2023-01-19T21:20:58.210Z,2.91
2023-01-19T21:26:01.723Z,3.18
2023-01-19T21:31:08.649Z,3.15
2023-01-19T21:36:11.859Z,3.20
2023-01-19T21:41:16.405Z,3.00
2023-01-19T21:46:22.600Z,2.38
2023-01-19T21:51:25.224Z,2.93
2023-01-19T21:56:29.333Z,2.41
2023-01-19T22:01:34.175Z,2.94
2023-01-19T22:06:36.803Z,2.43
2023-01-19T22:11:39.451Z,2.92
2023-01-19T22:16:43.564Z,2.58
2023-01-19T22:21:46.172Z,2.86
2023-01-19T22:26:48.726Z,2.94
2023-01-19T22:31:52.936Z,2.86
2023-01-19T22:36:55.541Z,2.54
2023-01-19T22:41:58.171Z,2.66
2023-01-19T22:47:02.187Z,2.74
2023-01-19T22:52:04.937Z,2.71
2023-01-19T22:57:11.047Z,2.77
2023-01-19T23:02:15.054Z,2.81
2023-01-19T23:07:17.662Z,2.71
2023-01-19T23:12:20.906Z,2.68
2023-01-19T23:17:24.930Z,2.77
2023-01-19T23:22:27.459Z,2.82
2023-01-19T23:27:30.031Z,2.83
2023-01-19T23:32:33.975Z,2.90
2023-01-19T23:37:36.544Z,3.07
2023-01-19T23:42:39.293Z,3.06
2023-01-19T23:47:43.885Z,2.88
2023-01-19T23:52:46.507Z,3.04
2023-01-19T23:57:49.063Z,3.15
